Nearby METAR Reports

 

KSJC - San Jose, California, USA
Distance from station: NE 14km
Updated: 2019-11-17 17:53
Few Clouds
Few Clouds
 Wind from NW
Wind: NW 9 km/h
Temperature: 23°C
Dew Point: 9°C
Humidity: 41%
Barometer: 1015.9 hPa
Clouds: Few Clouds
Visibility: 16 km
Cloud details: Few Clouds 2591 m
Few Clouds 6096 m
2019/11/17 23:53 KSJC 172353Z 32005KT 10SM FEW085 FEW200 23/09 A3000 RMK AO2 SLP158 T02330094 10233 20156 56017 $
KNUQ - Moffett Nas/Mtn, California, USA
Distance from station: N 14km
Updated: 2019-11-17 17:56

 
Barometer: 1016.3 hPa
2019/11/17 23:56 KNUQ 172356Z A3001 RMK AO2 SLP166 56014 PWINO $
 
KPAO - Palo Alto, California, USA
Distance from station: NNW 23km
Updated: 2019-11-17 17:47
Clear
Clear
 Wind from NW
Wind: NW 15 km/h
Temperature: 22°C
Dew Point: 8°C
Humidity: 41%
Barometer: 1016.3 hPa
Clouds: Clear
Visibility: 16 km
2019/11/17 23:47 KPAO 172347Z 32008KT 10SM SKC 22/08 A3001
KRHV - San Jose/Reid, California, USA
Distance from station: ENE 19km
Updated: 2019-11-17 17:47
Clear
Clear
 Wind from WNW
Wind: WNW 11 km/h
Temperature: 22°C
Dew Point: 10°C
Humidity: 47%
Barometer: 1016.3 hPa
Clouds: Clear
Visibility: 16 km
2019/11/17 23:47 KRHV 172347Z 30006KT 10SM SKC 22/10 A3001
 
KOAK - Oakland, California, USA
Distance from station: NNW 50km
Updated: 2019-11-17 17:53
Few Clouds
Few Clouds
 Wind from NW
Wind: NW 11 km/h
Temperature: 23°C
Dew Point: 9°C
Humidity: 41%
Barometer: 1016.3 hPa
Clouds: Few Clouds
Visibility: 16 km
Cloud details: Few Clouds 7620 m
2019/11/17 23:53 KOAK 172353Z 31006KT 10SM FEW250 23/09 A3001 RMK AO2 SLP162 T02280094 10244 20167 56015 $
KSQL - San Carlos Airpo, California, USA
Distance from station: NW 34km
Updated: 2019-11-17 17:47
Clear
Clear
 Wind from WNW
Wind: WNW 7 km/h
Temperature: 24°C
Dew Point: 7°C
Humidity: 34%
Barometer: 1016.6 hPa
Clouds: Clear
Visibility: 16 km
2019/11/17 23:47 KSQL 172347Z 29004KT 10SM SKC 24/07 A3002
 
KSFO - San Francisco, California, USA
Distance from station: NW 49km
Updated: 2019-11-17 17:56
Few Clouds
Few Clouds
 Wind from NW
Wind: NW 9 km/h
Temperature: 22°C
Dew Point: 9°C
Humidity: 44%
Barometer: 1015.9 hPa
Clouds: Few Clouds
Visibility: 16 km
Cloud details: Few Clouds 6096 m
2019/11/17 23:56 KSFO 172356Z 31005KT 10SM FEW200 22/09 A3000 RMK AO2 SLP160 T02220094 10233 20161 56017 $
KE16 - San Martin, California, USA
Distance from station: ESE 43km
Updated: 2019-11-14 03:35
NOT Current
Overcast
Overcast
 Wind from SE
Wind: SE 11 km/h
Temperature: 12°C
Dew Point: 10°C
Humidity: 88%
Barometer: 1017.6 hPa
Clouds: Overcast
Visibility: 16 km
Cloud details: Overcast 427 m
2019/11/14 09:35 KE16 140935Z AUTO 13006KT 10SM OVC014 12/10 A3005 RMK AO2
 
KWVI - Watsonville, California, USA
Distance from station: SSE 44km
Updated: 2019-11-17 17:53
Clear
Clear
 Wind from calm
Wind: Calm
Temperature: 27°C
Dew Point: 9°C
Humidity: 32%
Barometer: 1014.9 hPa
Clouds: Clear
Visibility: 16 km
2019/11/17 23:53 KWVI 172353Z AUTO 00000KT 10SM CLR 27/09 A2997 RMK AO2 SLP149 T02670089 10289 20211 56014 $
KHAF - Half Moon Bay, California, USA
Distance from station: WNW 50km
Updated: 2019-11-17 18:35
Clear
Clear
 Wind from NW
Wind: NW 20 km/h
Temperature: 16°C
Dew Point: 10°C
Humidity: 68%
Barometer: 1016.3 hPa
Clouds: Clear
Visibility: 16 km
2019/11/18 00:35 KHAF 180035Z AUTO 32011KT 10SM CLR 16/10 A3001 RMK AO2
 
KHWD - Hayward, California, USA
Distance from station: N 44km
Updated: 2019-11-17 17:54
Clear
Clear
 Wind from N
Wind: N 9 km/h
Temperature: 27°C
Dew Point: 4°C
Humidity: 23%
Barometer: 1015.6 hPa
Clouds: Clear
Visibility: 16 km
2019/11/17 23:54 KHWD 172354Z 36005KT 10SM CLR 27/04 A2999 RMK AO2 SLP165 T02670039 10267 20167 56020
KLVK - Livermore, California, USA
Distance from station: NNE 51km
Updated: 2019-11-17 17:53
Clear
Clear
 Wind from ENE
Wind: ENE 19 km/h
Temperature: 22°C
Dew Point: 8°C
Humidity: 41%
Barometer: 1016.3 hPa
Clouds: Clear
Visibility: 16 km
2019/11/17 23:53 KLVK 172353Z 07010KT 10SM CLR 22/08 A3001 RMK AO2 SLP161 T02220078 10233 20167 56014 $